AIRPORT MAP

 RUNWAY INFORMATION

Runway 16 Runway length 6352 ft Runway width 148 ft
Runway elevation 41 ft Runway displaced threshold 210 ft Runway heading 183
Runway 34 Runway length 6352 ft Runway width 148 ft
Runway elevation 23 ft Runway displaced threshold 210 ft Runway heading 3

 AIRPORT FREQUENCIES

Type APP Name APP Frequency 122.3 MHZ
Type ATIS Name ATIS Frequency 126.9 MHZ
Type GND Name GND Frequency 121.9 MHZ
Type TWR Name TWR Frequency 118.8 MHZ

 AIRPORT NEAR NAVIGATION AIDS

Type NDB Name Newlands Frequency 358 KHZ
Type NDB Name Titahi Bay Frequency 234 KHZ
Type VOR-DME Name Wellington Frequency 112300 KHZ
Type NDB Name Wellington Frequency 298 KHZ

 METAR AND TAF INFORMATION

METAR FOR NZWN
ADDS - METARS form results

(2053 UTC 08 August 2020)
Data provider http://aviationweather.gov/metar/data/
 
METAR text: NZWN 082030Z AUTO 03010KT 9999 BKN024/// OVC031/// 09/05 Q1009 NOSIG
Conditions at: NZWN (WELLINGTON INTL , NZ) observed 2030 UTC 08 August 2020
Temperature: 9.0°C (48°F)
Dewpoint: 5.0°C (41°F) [RH = 76%]
Pressure (altimeter): 29.79 inches Hg (1009.0 mb)
Winds: from the NNE (30 degrees) at 12 MPH (10 knots; 5.1 m/s)
Visibility: 6 or more miles (10+ km)
Ceiling: 2400 feet AGL
Clouds: broken clouds at 2400 feet AGL
overcast cloud deck at 3100 feet AGL
Weather: no significant weather observed at this time

METAR text: NZWN 082000Z AUTO 02009KT 9999 BKN024/// BKN029/// 08/05 Q1009 NOSIG
Conditions at: NZWN (WELLINGTON INTL , NZ) observed 2000 UTC 08 August 2020
Temperature: 8.0°C (46°F)
Dewpoint: 5.0°C (41°F) [RH = 81%]
Pressure (altimeter): 29.79 inches Hg (1009.0 mb)
Winds: from the NNE (20 degrees) at 10 MPH (9 knots; 4.6 m/s)
Visibility: 6 or more miles (10+ km)
Ceiling: 2400 feet AGL
Clouds: broken clouds at 2400 feet AGL
broken clouds at 2900 feet AGL
Weather: no significant weather observed at this time

Forecast for: NZWN (WELLINGTON INTL , NZ)
Text: TAF NZWN 081709Z 0818/0918 04010KT 9999 SCT030
Forecast period: 1800 to 2100 UTC 08 August 2020
Forecast type: FROM: standard forecast or significant change
Winds: from the NE (40 degrees) at 12 MPH (10 knots; 5.1 m/s)
Visibility: 6 or more miles (10+ km)
Ceiling: at least 12,000 feet AGL
Clouds: scattered clouds at 3000 feet AGL
Weather: no significant weather forecast for this period
Text: FM082100 34015KT 9999 FEW030
Forecast period: 2100 UTC 08 August 2020 to 1800 UTC 09 August 2020
Forecast type: FROM: standard forecast or significant change
Winds: from the NNW (340 degrees) at 17 MPH (15 knots; 7.7 m/s)
Visibility: 6 or more miles (10+ km)
Ceiling: at least 12,000 feet AGL
Clouds: few clouds at 3000 feet AGL
Weather: no significant weather forecast for this period